Time;durP1;ratioP1;P1;durP2;ratioP2;P2;SDS_P1;SDS_P2;PMS_P1;PMS_P2;Temp;Humidity;BMP_temperature;BMP_pressure;BME280_temperature;BME280_humidity;BME280_pressure;Samples;Min_cycle;Max_cycle;Signal;HPM_P1;HPM_P2
2022/10/10 00:01:21;;;;;;;;;;;;;;;21.51;53.35;100875.41;7281058;19;153969;-57
2022/10/10 00:03:48;;;;;;;;;;;;;;;21.52;52.85;100882.69;7291754;19;153026;-57
2022/10/10 00:06:15;;;;;;;;;;;;;;;21.52;53.13;100870.59;7279532;19;153735;-57
2022/10/10 00:08:42;;;;;;;;;;;;;;;21.52;53.43;100877.06;7284387;19;152682;-57
2022/10/10 00:11:09;;;;;;;;;;;;;;;21.52;53.14;100868.63;7279101;19;153344;-57
2022/10/10 00:13:37;;;;;;;;;;;;;;;21.51;52.99;100869.78;7282090;19;154814;-57
2022/10/10 00:16:03;;;;;;;;;;;;;;;21.52;52.73;100871.44;7280831;19;153605;-56
2022/10/10 00:18:30;;;;;;;;;;;;;;;21.51;52.93;100866.97;7279682;19;153827;-57
2022/10/10 00:20:57;;;;;;;;;;;;;;;21.51;52.98;100866.97;7278449;19;153475;-57
2022/10/10 00:23:24;;;;;;;;;;;;;;;21.50;53.01;100865.28;7291556;19;152303;-57
2022/10/10 00:25:51;;;;;;;;;;;;;;;21.49;52.85;100866.44;7279750;19;154081;-57
2022/10/10 00:28:24;;;;;;;;;;;;;;;21.50;53.32;100867.28;7283018;19;152462;-58
2022/10/10 00:30:51;;;;;;;;;;;;;;;21.50;53.20;100868.09;7281508;19;152678;-57
2022/10/10 00:33:18;;;;;;;;;;;;;;;21.49;53.13;100866.44;7281895;19;154483;-58
2022/10/10 00:35:45;;;;;;;;;;;;;;;21.49;53.26;100874.88;7280439;19;151816;-58
2022/10/10 00:38:18;;;;;;;;;;;;;;;21.47;52.97;100860.31;7282148;19;153508;-58
2022/10/10 00:40:49;;;;;;;;;;;;;;;21.47;53.10;100859.47;7279905;19;154557;-58
2022/10/10 00:43:16;;;;;;;;;;;;;;;21.46;53.11;100857.81;7276893;19;152441;-58
2022/10/10 00:45:44;;;;;;;;;;;;;;;21.45;53.44;100859.78;7288881;19;152757;-58
2022/10/10 00:48:19;;;;;;;;;;;;;;;21.44;53.12;100849.69;7280519;19;152046;-58
2022/10/10 00:50:48;;;;;;;;;;;;;;;21.44;53.22;100858.13;7281576;19;152826;-58
2022/10/10 00:53:16;;;;;;;;;;;;;;;21.43;53.36;100852.84;7281350;19;154419;-58
2022/10/10 00:55:43;;;;;;;;;;;;;;;21.43;53.19;100853.66;7279147;19;153399;-58
2022/10/10 00:58:11;;;;;;;;;;;;;;;21.42;52.98;100857.63;7281129;19;153489;-58
2022/10/10 01:00:38;;;;;;;;;;;;;;;21.41;53.38;100860.72;7279704;19;153989;-58
2022/10/10 01:03:04;;;;;;;;;;;;;;;21.41;53.18;100864.38;7281644;19;153238;-58
2022/10/10 01:05:32;;;;;;;;;;;;;;;21.40;53.06;100870.31;7280052;19;153299;-57
2022/10/10 01:07:59;;;;;;;;;;;;;;;21.39;53.30;100863.88;7285117;19;154193;-57
2022/10/10 01:10:26;;;;;;;;;;;;;;;21.37;53.43;100866.16;7281490;19;153375;-57
2022/10/10 01:13:08;;;;;;;;;;;;;;;21.36;53.12;100861.69;7276939;19;154778;-58
2022/10/10 01:15:35;;;;;;;;;;;;;;;21.36;53.38;100861.69;7280596;19;151892;-58
2022/10/10 01:18:40;;;;;;;;;;;;;;;21.35;53.66;100860.00;7284128;19;153053;-58
2022/10/10 01:21:09;;;;;;;;;;;;;;;21.35;53.18;100868.44;7279870;19;153958;-57
2022/10/10 01:23:54;;;;;;;;;;;;;;;21.34;53.56;100861.19;7284600;19;152279;-57
2022/10/10 01:26:42;;;;;;;;;;;;;;;21.33;53.56;100870.75;7284550;19;152653;-57
2022/10/10 01:29:24;;;;;;;;;;;;;;;21.32;53.46;100871.91;7285586;19;153569;-58
2022/10/10 01:31:54;;;;;;;;;;;;;;;21.31;53.79;100867.41;7295038;19;152436;-57
2022/10/10 01:34:36;;;;;;;;;;;;;;;21.29;53.23;100859.31;7285233;19;153406;-57
2022/10/10 01:37:19;;;;;;;;;;;;;;;21.29;53.25;100864.09;7286044;19;152843;-59
2022/10/10 01:39:46;;;;;;;;;;;;;;;21.28;53.47;100860.47;7282721;19;152602;-58
2022/10/10 01:42:23;;;;;;;;;;;;;;;21.28;53.50;100868.06;7284190;19;154107;-59
2022/10/10 01:44:52;;;;;;;;;;;;;;;21.27;53.69;100869.19;7287228;19;152670;-59
2022/10/10 01:47:20;;;;;;;;;;;;;;;21.26;53.57;100864.72;7286852;19;152763;-58
2022/10/10 01:49:50;;;;;;;;;;;;;;;21.25;53.54;100871.50;7283357;19;153391;-59
2022/10/10 01:52:35;;;;;;;;;;;;;;;21.24;53.75;100869.84;7287402;19;152848;-58
2022/10/10 01:55:12;;;;;;;;;;;;;;;21.23;53.98;100865.34;7292807;19;153449;-58
2022/10/10 01:57:48;;;;;;;;;;;;;;;21.23;53.61;100868.16;7283543;19;152196;-58
2022/10/10 02:00:16;;;;;;;;;;;;;;;21.22;53.91;100866.50;7283937;19;153717;-58
2022/10/10 02:02:59;;;;;;;;;;;;;;;21.21;53.89;100868.47;7285562;19;153702;-59
2022/10/10 02:05:31;;;;;;;;;;;;;;;21.19;54.00;100870.78;7285954;19;152627;-59
2022/10/10 02:08:16;;;;;;;;;;;;;;;21.20;53.72;100868.81;7286847;19;153584;-59
2022/10/10 02:10:48;;;;;;;;;;;;;;;21.18;54.02;100857.88;7283878;19;154044;-60
2022/10/10 02:13:15;;;;;;;;;;;;;;;21.19;53.82;100858.72;7285738;19;152659;-57
2022/10/10 02:15:51;;;;;;;;;;;;;;;21.18;53.91;100859.84;7285297;19;152354;-58
2022/10/10 02:18:19;;;;;;;;;;;;;;;21.17;53.91;100861.81;7292712;19;152657;-57
2022/10/10 02:20:47;;;;;;;;;;;;;;;21.16;53.96;100865.81;7284683;19;152651;-58
2022/10/10 02:23:15;;;;;;;;;;;;;;;21.16;54.31;100865.81;7285395;19;154642;-57
2022/10/10 02:25:44;;;;;;;;;;;;;;;21.16;54.44;100864.97;7281300;19;153552;-57
2022/10/10 02:28:11;;;;;;;;;;;;;;;21.15;54.42;100863.31;7284086;19;153554;-57
2022/10/10 02:30:41;;;;;;;;;;;;;;;21.14;54.15;100864.44;7280732;19;153472;-57
2022/10/10 02:33:10;;;;;;;;;;;;;;;21.15;54.29;100866.09;7285554;19;153415;-57
2022/10/10 02:35:39;;;;;;;;;;;;;;;21.14;54.36;100864.44;7284634;19;153453;-57
2022/10/10 02:38:08;;;;;;;;;;;;;;;21.12;54.19;100861.09;7292705;19;154184;-58
2022/10/10 02:40:34;;;;;;;;;;;;;;;21.12;54.25;100864.72;7284895;19;153116;-58
2022/10/10 02:43:03;;;;;;;;;;;;;;;21.12;54.57;100858.28;7280307;19;153678;-58
2022/10/10 02:45:32;;;;;;;;;;;;;;;21.13;54.48;100865.56;7284641;19;152425;-58
2022/10/10 02:48:01;;;;;;;;;;;;;;;21.11;54.61;100853.81;7284314;19;152793;-58
2022/10/10 02:50:29;;;;;;;;;;;;;;;21.10;54.71;100858.59;7282588;19;154215;-58
2022/10/10 02:52:55;;;;;;;;;;;;;;;21.10;54.39;100869.00;7286137;19;152132;-61
2022/10/10 02:55:22;;;;;;;;;;;;;;;21.10;54.74;100869.00;7284974;19;152758;-57
2022/10/10 02:57:49;;;;;;;;;;;;;;;21.09;54.32;100856.91;7281574;19;153566;-58
2022/10/10 03:00:16;;;;;;;;;;;;;;;21.08;54.73;100852.44;7289463;19;152281;-58
2022/10/10 03:02:43;;;;;;;;;;;;;;;21.07;54.27;100855.59;7283548;19;154125;-58
2022/10/10 03:05:10;;;;;;;;;;;;;;;21.06;54.41;100854.75;7283981;19;151909;-57
2022/10/10 03:07:36;;;;;;;;;;;;;;;21.06;54.77;100845.50;7285288;19;152741;-58
2022/10/10 03:10:06;;;;;;;;;;;;;;;21.04;54.44;100857.03;7280965;19;155065;-57
2022/10/10 03:12:33;;;;;;;;;;;;;;;21.03;54.83;100849.75;7284300;19;152895;-57
2022/10/10 03:15:00;;;;;;;;;;;;;;;21.04;54.74;100856.19;7284236;19;153760;-57
2022/10/10 03:17:26;;;;;;;;;;;;;;;21.04;54.75;100853.38;7281949;19;153543;-57
2022/10/10 03:19:53;;;;;;;;;;;;;;;21.03;54.51;100848.94;7280373;19;152658;-57
2022/10/10 03:22:20;;;;;;;;;;;;;;;21.02;54.69;100848.09;7291126;19;152918;-57
2022/10/10 03:24:46;;;;;;;;;;;;;;;21.01;54.73;100849.25;7284202;19;152558;-57
2022/10/10 03:27:15;;;;;;;;;;;;;;;21.01;54.74;100851.22;7283342;19;153483;-57
2022/10/10 03:29:42;;;;;;;;;;;;;;;20.99;54.60;100851.50;7281385;19;152266;-58
2022/10/10 03:32:09;;;;;;;;;;;;;;;20.99;54.68;100859.94;7283778;19;152056;-57
2022/10/10 03:34:36;;;;;;;;;;;;;;;20.98;55.02;100855.50;7283659;19;153777;-57
2022/10/10 03:37:09;;;;;;;;;;;;;;;20.99;54.80;100859.09;7282807;19;153944;-57
2022/10/10 03:39:36;;;;;;;;;;;;;;;20.99;54.94;100861.91;7281039;19;152989;-58
2022/10/10 03:42:03;;;;;;;;;;;;;;;20.96;55.00;100854.13;7281469;19;152757;-58
2022/10/10 03:44:29;;;;;;;;;;;;;;;20.97;55.18;100853.00;7288481;19;154474;-58
2022/10/10 03:46:56;;;;;;;;;;;;;;;20.97;55.11;100861.41;7282997;19;154164;-59
2022/10/10 03:49:23;;;;;;;;;;;;;;;20.97;54.80;100864.22;7281034;19;153899;-57
2022/10/10 03:51:49;;;;;;;;;;;;;;;20.97;55.34;100861.41;7284747;19;152104;-58
2022/10/10 03:54:16;;;;;;;;;;;;;;;20.95;55.26;100870.16;7282742;19;153550;-58
2022/10/10 03:56:43;;;;;;;;;;;;;;;20.96;55.34;100868.16;7281147;19;153648;-58
2022/10/10 03:59:09;;;;;;;;;;;;;;;20.94;55.38;100867.66;7279929;19;152670;-58
2022/10/10 04:01:36;;;;;;;;;;;;;;;20.93;55.56;100872.44;7283229;19;153307;-59
2022/10/10 04:04:04;;;;;;;;;;;;;;;20.95;55.40;100869.31;7281068;19;154292;-56
2022/10/10 04:06:30;;;;;;;;;;;;;;;20.95;55.43;100867.34;7290258;19;151984;-57
2022/10/10 04:08:57;;;;;;;;;;;;;;;20.94;55.25;100874.09;7282283;19;153400;-58
2022/10/10 04:11:23;;;;;;;;;;;;;;;20.95;55.24;100872.13;7282032;19;152251;-57
2022/10/10 04:13:50;;;;;;;;;;;;;;;20.94;55.72;100868.47;7282450;19;152903;-58
2022/10/10 04:16:17;;;;;;;;;;;;;;;20.95;55.79;100872.13;7280594;19;154493;-57
2022/10/10 04:18:43;;;;;;;;;;;;;;;20.93;55.49;100872.44;7283713;19;152886;-57
2022/10/10 04:21:10;;;;;;;;;;;;;;;20.93;55.68;100883.69;7281950;19;153505;-57
2022/10/10 04:23:39;;;;;;;;;;;;;;;20.94;55.75;100884.53;7282517;19;154268;-57
2022/10/10 04:26:06;;;;;;;;;;;;;;;20.92;55.37;100893.25;7286915;19;152226;-57
2022/10/10 04:28:33;;;;;;;;;;;;;;;20.91;55.44;100897.19;7279673;19;153449;-58
2022/10/10 04:30:59;;;;;;;;;;;;;;;20.91;55.73;100891.59;7279203;19;152818;-58
2022/10/10 04:33:26;;;;;;;;;;;;;;;20.91;55.48;100891.59;7283553;19;153473;-60
2022/10/10 04:35:53;;;;;;;;;;;;;;;20.91;55.69;100896.38;7278941;19;153482;-59
2022/10/10 04:38:21;;;;;;;;;;;;;;;20.91;55.60;100901.97;7284138;19;151682;-59
2022/10/10 04:40:49;;;;;;;;;;;;;;;20.90;55.75;100897.50;7278738;19;153580;-59
2022/10/10 04:43:16;;;;;;;;;;;;;;;20.90;55.70;100903.13;7278110;19;154111;-59
2022/10/10 04:45:43;;;;;;;;;;;;;;;20.89;55.67;100910.75;7281436;19;152473;-59
2022/10/10 04:48:10;;;;;;;;;;;;;;;20.88;55.61;100902.63;7288162;19;153547;-59
2022/10/10 04:50:36;;;;;;;;;;;;;;;20.88;55.94;100902.63;7279976;19;153216;-60
2022/10/10 04:53:03;;;;;;;;;;;;;;;20.88;56.02;100911.03;7279922;19;153891;-59
2022/10/10 04:55:30;;;;;;;;;;;;;;;20.88;55.69;100919.47;7279106;19;155707;-57
2022/10/10 04:57:57;;;;;;;;;;;;;;;20.86;55.87;100919.75;7282032;19;152812;-58
2022/10/10 05:00:24;;;;;;;;;;;;;;;20.85;55.67;100921.75;7278786;19;153832;-58
2022/10/10 05:02:50;;;;;;;;;;;;;;;20.85;56.20;100923.72;7280464;19;154007;-58
2022/10/10 05:05:17;;;;;;;;;;;;;;;20.83;56.11;100918.44;7278724;19;152232;-58
2022/10/10 05:07:44;;;;;;;;;;;;;;;20.84;56.28;100910.84;7282374;19;152669;-58
2022/10/10 05:10:11;;;;;;;;;;;;;;;20.85;55.79;100915.28;7285933;19;153330;-59
2022/10/10 05:12:37;;;;;;;;;;;;;;;20.86;56.19;100917.78;7281110;19;152794;-58
2022/10/10 05:15:05;;;;;;;;;;;;;;;20.89;56.68;100921.97;7278966;19;154473;-58
2022/10/10 05:17:31;;;;;;;;;;;;;;;20.94;57.43;100932.28;7282409;19;152117;-58
2022/10/10 05:19:58;;;;;;;;;;;;;;;20.99;57.74;100929.34;7278234;19;152776;-58
2022/10/10 05:22:25;;;;;;;;;;;;;;;21.03;57.81;100933.22;7279839;19;155568;-58
2022/10/10 05:24:51;;;;;;;;;;;;;;;21.07;57.89;100948.28;7278363;19;152608;-57
2022/10/10 05:27:18;;;;;;;;;;;;;;;21.12;58.12;100945.38;7279970;19;153916;-57
2022/10/10 05:29:45;;;;;;;;;;;;;;;21.18;58.42;100941.34;7279101;19;153400;-58
2022/10/10 05:32:11;;;;;;;;;;;;;;;21.23;58.41;100953.31;7289422;19;152999;-58
2022/10/10 05:34:38;;;;;;;;;;;;;;;21.30;58.19;100955.72;7277216;19;153391;-59
2022/10/10 05:37:12;;;;;;;;;;;;;;;21.37;58.44;100949.66;7282189;19;153259;-57
2022/10/10 05:39:39;;;;;;;;;;;;;;;21.43;58.08;100962.47;7279466;19;152768;-57
2022/10/10 05:42:05;;;;;;;;;;;;;;;21.47;58.03;100967.13;7277523;19;153730;-57
2022/10/10 05:44:32;;;;;;;;;;;;;;;21.53;57.80;100979.09;7279509;19;152018;-57
2022/10/10 05:46:59;;;;;;;;;;;;;;;21.59;57.56;100981.47;7279181;19;152736;-57
2022/10/10 05:49:26;;;;;;;;;;;;;;;21.63;57.40;100993.75;7277534;19;153434;-57
2022/10/10 05:51:52;;;;;;;;;;;;;;;21.67;57.39;100996.75;7279912;19;151697;-57
2022/10/10 05:54:20;;;;;;;;;;;;;;;21.71;57.08;100990.19;7286333;19;153902;-57
2022/10/10 05:56:47;;;;;;;;;;;;;;;21.76;57.33;100994.88;7277947;19;152485;-58
2022/10/10 05:59:13;;;;;;;;;;;;;;;21.80;56.87;100992.28;7277973;19;153372;-57
2022/10/10 06:01:40;;;;;;;;;;;;;;;21.83;56.72;101006.53;7278371;19;154142;-56
2022/10/10 06:04:07;;;;;;;;;;;;;;;21.85;57.04;101015.47;7284047;19;152767;-57
2022/10/10 06:06:34;;;;;;;;;;;;;;;21.89;56.56;101021.31;7287139;19;152686;-57
2022/10/10 06:09:00;;;;;;;;;;;;;;;21.92;56.75;101020.69;7285122;19;153611;-58
2022/10/10 06:11:28;;;;;;;;;;;;;;;21.95;56.85;101025.69;7285494;19;152985;-57
2022/10/10 06:13:55;;;;;;;;;;;;;;;21.96;56.79;101036.66;7285976;19;154580;-58
2022/10/10 06:16:23;;;;;;;;;;;;;;;21.98;56.75;101040.00;7292820;19;154102;-58
2022/10/10 06:18:50;;;;;;;;;;;;;;;22.03;56.93;101041.88;7286552;19;152302;-59
2022/10/10 06:21:17;;;;;;;;;;;;;;;22.03;56.68;101045.47;7281658;19;154106;-58
2022/10/10 06:23:44;;;;;;;;;;;;;;;22.04;56.52;101054.75;7286485;19;152684;-59
2022/10/10 06:26:11;;;;;;;;;;;;;;;22.05;56.46;101065.72;7283500;19;154276;-59
2022/10/10 06:28:38;;;;;;;;;;;;;;;22.05;56.13;101073.31;7284734;19;152891;-59
2022/10/10 06:31:07;;;;;;;;;;;;;;;22.05;56.02;101078.94;7283847;19;152302;-59
2022/10/10 06:33:36;;;;;;;;;;;;;;;22.05;56.19;101084.56;7284283;19;153806;-58
2022/10/10 06:36:04;;;;;;;;;;;;;;;21.90;55.45;101096.13;7288726;19;154022;-58
2022/10/10 06:38:31;;;;;;;;;;;;;;;21.83;54.96;101101.34;7286612;19;153382;-58
2022/10/10 06:41:01;;;;;;;;;;;;;;;21.85;55.71;101099.88;7280612;19;153782;-59
2022/10/10 06:43:28;;;;;;;;;;;;;;;21.86;55.33;101103.50;7281444;19;152670;-59
2022/10/10 06:45:55;;;;;;;;;;;;;;;21.87;55.18;101116.44;7284251;19;152725;-59
2022/10/10 06:48:22;;;;;;;;;;;;;;;21.87;54.90;101127.69;7285470;19;156305;-59
2022/10/10 06:50:58;;;;;;;;;;;;;;;21.88;54.91;101133.03;7284537;19;152433;-59
2022/10/10 06:53:26;;;;;;;;;;;;;;;21.87;54.46;101151.03;7285419;19;153443;-60
2022/10/10 06:55:54;;;;;;;;;;;;;;;21.87;54.53;101162.28;7282141;19;153461;-58
2022/10/10 06:58:22;;;;;;;;;;;;;;;21.87;54.50;101164.25;7292437;19;152292;-59
2022/10/10 07:00:50;;;;;;;;;;;;;;;21.86;54.17;101180.31;7280577;19;154294;-59
2022/10/10 07:03:17;;;;;;;;;;;;;;;21.86;53.80;101193.53;7282697;19;152825;-61
2022/10/10 07:05:43;;;;;;;;;;;;;;;21.86;53.75;101199.16;7283381;19;153883;-59
2022/10/10 07:08:10;;;;;;;;;;;;;;;21.85;54.09;101201.13;7285217;19;153549;-58
2022/10/10 07:10:37;;;;;;;;;;;;;;;21.85;54.01;101211.59;7283772;19;152625;-59
2022/10/10 07:13:04;;;;;;;;;;;;;;;21.85;53.75;101214.41;7283928;19;153706;-59
2022/10/10 07:15:31;;;;;;;;;;;;;;;21.85;53.38;101226.44;7281064;19;153772;-59
2022/10/10 07:17:58;;;;;;;;;;;;;;;21.83;53.55;101228.75;7285098;19;153094;-59
2022/10/10 07:20:24;;;;;;;;;;;;;;;21.85;53.55;101245.34;7288272;19;152644;-58
2022/10/10 07:22:51;;;;;;;;;;;;;;;21.85;53.40;101265.03;7284900;19;151969;-58
2022/10/10 07:25:19;;;;;;;;;;;;;;;21.85;53.69;101268.66;7283298;19;153745;-58
2022/10/10 07:27:45;;;;;;;;;;;;;;;21.86;54.28;101267.50;7282389;19;153975;-58
2022/10/10 07:30:12;;;;;;;;;;;;;;;21.88;53.91;101276.50;7283000;19;152139;-56
2022/10/10 07:32:39;;;;;;;;;;;;;;;21.91;54.13;101284.31;7283756;19;153465;-56
2022/10/10 07:35:06;;;;;;;;;;;;;;;21.93;54.13;101289.66;7281351;19;153717;-55
2022/10/10 07:37:33;;;;;;;;;;;;;;;21.93;54.29;101293.31;7284436;19;152175;-56
2022/10/10 07:39:59;;;;;;;;;;;;;;;21.92;53.89;101310.47;7282931;19;152707;-56
2022/10/10 07:42:26;;;;;;;;;;;;;;;21.89;53.47;101316.72;7285622;19;154455;-56
2022/10/10 07:44:53;;;;;;;;;;;;;;;21.88;53.69;101318.69;7282412;19;152746;-58
2022/10/10 07:47:20;;;;;;;;;;;;;;;21.87;53.31;101324.63;7279858;19;153558;-58
2022/10/10 07:49:47;;;;;;;;;;;;;;;21.86;53.32;101337.00;7283106;19;152234;-57
2022/10/10 07:52:13;;;;;;;;;;;;;;;21.83;53.45;101332.00;7283186;19;153262;-57
2022/10/10 07:54:41;;;;;;;;;;;;;;;21.82;53.33;101338.75;7231535;19;159072;-57
2022/10/10 07:57:13;;;;;;;;;;;;;;;21.80;52.91;101339.09;7272805;19;152741;-57
2022/10/10 07:59:41;;;;;;;;;;;;;;;21.80;52.97;101341.91;7276230;19;154019;-57
2022/10/10 08:02:08;;;;;;;;;;;;;;;21.79;53.08;101350.63;7271770;19;153665;-56
2022/10/10 08:04:35;;;;;;;;;;;;;;;21.77;52.35;101356.56;7285063;19;152241;-57
2022/10/10 08:07:01;;;;;;;;;;;;;;;21.74;53.07;101354.38;7278027;19;154326;-57
2022/10/10 08:09:28;;;;;;;;;;;;;;;21.71;52.93;101349.38;7277722;19;153006;-56
2022/10/10 08:11:56;;;;;;;;;;;;;;;21.69;52.89;101360.09;7276409;19;152607;-56
2022/10/10 08:14:23;;;;;;;;;;;;;;;21.68;52.88;101367.69;7271523;19;154492;-56
2022/10/10 08:16:54;;;;;;;;;;;;;;;21.67;52.86;101374.44;7272585;19;153397;-56
2022/10/10 08:19:21;;;;;;;;;;;;;;;21.65;52.76;101382.38;7277134;19;153561;-57
2022/10/10 08:21:47;;;;;;;;;;;;;;;21.64;52.85;101374.22;7258200;19;154148;-56
2022/10/10 08:24:14;;;;;;;;;;;;;;;21.62;53.01;101385.75;7273735;19;153747;-57
2022/10/10 08:26:45;;;;;;;;;;;;;;;21.60;52.58;101388.06;7268824;19;153155;-56
2022/10/10 08:29:12;;;;;;;;;;;;;;;21.60;52.68;101404.09;7272302;19;153182;-57
2022/10/10 08:31:39;;;;;;;;;;;;;;;21.57;52.87;101405.56;7277079;19;153205;-56
2022/10/10 08:34:05;;;;;;;;;;;;;;;21.55;52.41;101418.22;7277284;19;153992;-56
2022/10/10 08:36:32;;;;;;;;;;;;;;;21.54;52.85;101413.75;7282635;19;151891;-57
2022/10/10 08:39:00;;;;;;;;;;;;;;;21.51;52.64;101422.78;7282338;19;153577;-57
2022/10/10 08:41:27;;;;;;;;;;;;;;;21.50;52.53;101415.50;7278229;19;153416;-57
2022/10/10 08:43:56;;;;;;;;;;;;;;;21.48;52.71;101423.41;7282452;19;152463;-56
2022/10/10 08:46:26;;;;;;;;;;;;;;;21.46;52.48;101426.50;7286917;19;154156;-56
2022/10/10 08:48:56;;;;;;;;;;;;;;;21.44;52.96;101425.97;7281983;19;152083;-56
2022/10/10 08:51:25;;;;;;;;;;;;;;;21.43;52.51;101429.09;7279108;19;152639;-56
2022/10/10 08:53:54;;;;;;;;;;;;;;;21.41;52.48;101437.81;7281342;19;153397;-56
2022/10/10 08:56:24;;;;;;;;;;;;;;;21.40;52.69;101435.31;7280684;19;152702;-57
2022/10/10 08:58:54;;;;;;;;;;;;;;;21.36;52.83;101449.13;7279254;19;154132;-56
2022/10/10 09:01:23;;;;;;;;;;;;;;;21.35;52.51;101446.66;7278406;19;154966;-58
2022/10/10 09:03:56;;;;;;;;;;;;;;;21.33;52.93;101462.97;7280972;19;152677;-57
2022/10/10 09:06:41;;;;;;;;;;;;;;;21.32;52.70;101464.09;7281276;19;152846;-56
2022/10/10 09:09:24;;;;;;;;;;;;;;;21.30;52.63;101462.41;7284972;19;152816;-56
2022/10/10 09:11:54;;;;;;;;;;;;;;;21.29;52.88;101459.94;7280371;19;153448;-56
2022/10/10 09:14:39;;;;;;;;;;;;;;;21.28;52.94;101458.25;7278790;19;154155;-57
2022/10/10 09:17:21;;;;;;;;;;;;;;;21.26;52.87;101471.75;7280793;19;152219;-57
2022/10/10 09:20:00;;;;;;;;;;;;;;;21.24;52.67;101477.69;7280521;19;153024;-57
2022/10/10 09:22:30;;;;;;;;;;;;;;;21.21;52.87;101472.66;7277558;19;154131;-56
2022/10/10 09:25:14;;;;;;;;;;;;;;;21.21;52.72;101485.91;7280823;19;154699;-57
2022/10/10 09:27:43;;;;;;;;;;;;;;;21.20;52.81;101495.47;7273177;19;152722;-56
2022/10/10 09:30:19;;;;;;;;;;;;;;;21.18;52.70;101494.91;7274537;19;154112;-56
2022/10/10 09:33:00;;;;;;;;;;;;;;;21.17;52.56;101496.03;7288217;19;152668;-56
2022/10/10 09:35:28;;;;;;;;;;;;;;;21.15;52.73;101498.31;7278352;19;153709;-57
2022/10/10 09:38:17;;;;;;;;;;;;;;;21.13;52.44;101500.59;7281961;19;151876;-57
2022/10/10 09:40:48;;;;;;;;;;;;;;;21.14;52.76;101505.06;7285728;19;152268;-57
2022/10/10 09:43:19;;;;;;;;;;;;;;;21.13;52.77;101511.81;7283786;19;153899;-56
2022/10/10 09:45:55;;;;;;;;;;;;;;;21.12;52.61;101510.13;7285931;19;152741;-56
2022/10/10 09:48:27;;;;;;;;;;;;;;;21.12;52.72;101513.75;7286829;19;153840;-57
2022/10/10 09:50:54;;;;;;;;;;;;;;;21.12;52.94;101519.38;7283307;19;153369;-57
2022/10/10 09:53:21;;;;;;;;;;;;;;;21.12;52.78;101515.75;7287503;19;152312;-56
2022/10/10 09:55:49;;;;;;;;;;;;;;;21.11;52.95;101516.88;7291659;19;153913;-57
2022/10/10 09:58:27;;;;;;;;;;;;;;;21.12;52.53;101522.19;7286733;19;152515;-57
2022/10/10 10:01:22;;;;;;;;;;;;;;;21.13;52.81;101523.06;7282984;19;152508;-57
2022/10/10 10:04:07;;;;;;;;;;;;;;;21.13;52.53;101528.69;7286198;19;153382;-56
2022/10/10 10:07:02;;;;;;;;;;;;;;;21.13;52.71;101534.31;7286405;19;153305;-57
2022/10/10 10:09:28;;;;;;;;;;;;;;;21.12;52.97;101541.88;7286348;19;152875;-57
2022/10/10 10:11:56;;;;;;;;;;;;;;;21.13;52.82;101540.75;7283954;19;153989;-57
2022/10/10 10:14:27;;;;;;;;;;;;;;;21.12;52.61;101543.84;7285447;19;151718;-58
2022/10/10 10:17:18;;;;;;;;;;;;;;;21.12;52.86;101538.25;7287138;19;153670;-57
2022/10/10 10:19:46;;;;;;;;;;;;;;;21.13;52.70;101553.97;7291496;19;154151;-57
2022/10/10 10:22:21;;;;;;;;;;;;;;;21.14;52.90;101552.84;7285163;19;153569;-57
2022/10/10 10:24:52;;;;;;;;;;;;;;;21.13;52.62;101553.97;7282841;19;154108;-56
2022/10/10 10:27:21;;;;;;;;;;;;;;;21.13;52.75;101557.63;7284337;19;153186;-57
2022/10/10 10:29:52;;;;;;;;;;;;;;;21.12;52.45;101555.91;7279123;19;157133;-57
2022/10/10 10:32:43;;;;;;;;;;;;;;;21.13;52.45;101568.88;7285185;19;153501;-57
2022/10/10 10:35:26;;;;;;;;;;;;;;;21.14;52.30;101564.09;7284698;19;152512;-57
2022/10/10 10:37:59;;;;;;;;;;;;;;;21.15;52.41;101575.03;7286378;19;153422;-57
2022/10/10 10:40:37;;;;;;;;;;;;;;;21.15;52.51;101572.22;7283511;19;154005;-56
2022/10/10 10:43:23;;;;;;;;;;;;;;;21.15;52.33;101577.00;7290227;19;151973;-56
2022/10/10 10:45:55;;;;;;;;;;;;;;;21.15;52.05;101577.84;7282808;19;154009;-57
2022/10/10 10:48:28;;;;;;;;;;;;;;;21.16;52.24;101581.50;7284445;19;151661;-58
2022/10/10 10:50:58;;;;;;;;;;;;;;;21.16;52.48;101585.16;7281151;19;152489;-56
2022/10/10 10:53:30;;;;;;;;;;;;;;;21.16;52.45;101590.78;7285186;19;154186;-56
2022/10/10 10:56:00;;;;;;;;;;;;;;;21.16;52.36;101596.38;7282633;19;151978;-56
2022/10/10 10:58:49;;;;;;;;;;;;;;;21.17;52.04;101603.66;7285662;19;153279;-56
2022/10/10 11:01:41;;;;;;;;;;;;;;;21.16;52.13;101607.63;7282008;19;155629;-56
2022/10/10 11:04:27;;;;;;;;;;;;;;;21.16;52.31;101610.44;7292106;19;152161;-56
2022/10/10 11:07:22;;;;;;;;;;;;;;;21.17;52.06;101616.88;7283598;19;156212;-57
2022/10/10 11:09:54;;;;;;;;;;;;;;;21.17;52.10;101616.88;7284490;19;155345;-56
2022/10/10 11:12:41;;;;;;;;;;;;;;;21.18;52.03;101627.00;7282479;19;152730;-56
2022/10/10 11:15:15;;;;;;;;;;;;;;;21.17;52.03;101623.34;7279861;19;154546;-57
2022/10/10 11:17:53;;;;;;;;;;;;;;;21.17;52.11;101628.97;7284385;19;152276;-56
2022/10/10 11:20:20;;;;;;;;;;;;;;;21.18;51.73;101633.44;7283119;19;153483;-56
2022/10/10 11:22:57;;;;;;;;;;;;;;;21.18;51.80;101630.63;7282845;19;153415;-56
2022/10/10 11:25:26;;;;;;;;;;;;;;;21.19;51.98;101631.47;7281498;19;153000;-56
2022/10/10 11:28:05;;;;;;;;;;;;;;;21.20;51.74;101633.16;7288706;19;152958;-56
2022/10/10 11:30:34;;;;;;;;;;;;;;;21.19;51.43;101631.47;7278850;19;152857;-56
2022/10/10 11:33:10;;;;;;;;;;;;;;;21.19;51.57;101640.75;7282830;19;153270;-56
2022/10/10 11:35:44;;;;;;;;;;;;;;;21.20;51.71;101633.16;7281347;19;153024;-57
2022/10/10 11:38:11;;;;;;;;;;;;;;;21.20;51.65;101633.16;7284083;19;152138;-56
2022/10/10 11:40:44;;;;;;;;;;;;;;;21.20;51.43;101636.81;7283048;19;153218;-56
2022/10/10 11:43:14;;;;;;;;;;;;;;;21.21;51.62;101644.09;7280158;19;153350;-56
2022/10/10 11:45:45;;;;;;;;;;;;;;;21.23;51.60;101649.41;7281655;19;152183;-56
2022/10/10 11:48:21;;;;;;;;;;;;;;;21.24;51.58;101656.72;7284165;19;152671;-56
2022/10/10 11:50:51;;;;;;;;;;;;;;;21.29;51.78;101651.91;7287269;19;153398;-56
2022/10/10 11:53:21;;;;;;;;;;;;;;;21.37;51.39;101658.00;7285304;19;152688;-56
2022/10/10 11:56:08;;;;;;;;;;;;;;;21.41;50.99;101670.31;7280486;19;154379;-56
2022/10/10 11:58:40;;;;;;;;;;;;;;;21.44;50.84;101664.13;7257232;19;154116;-56
2022/10/10 12:01:12;;;;;;;;;;;;;;;21.46;50.91;101662.69;7274945;19;152855;-56
2022/10/10 12:03:39;;;;;;;;;;;;;;;21.48;50.95;101671.66;7273376;19;153410;-57
2022/10/10 12:06:06;;;;;;;;;;;;;;;21.51;51.08;101662.63;7275136;19;153959;-57
2022/10/10 12:08:35;;;;;;;;;;;;;;;21.53;50.89;101665.97;7278200;19;154418;-58
2022/10/10 12:11:08;;;;;;;;;;;;;;;21.56;50.75;101672.97;7272696;19;154002;-57
2022/10/10 12:13:34;;;;;;;;;;;;;;;21.61;50.35;101681.38;7283203;19;152523;-58
2022/10/10 12:16:06;;;;;;;;;;;;;;;21.63;50.79;101679.06;7273003;19;154298;-56
2022/10/10 12:18:49;;;;;;;;;;;;;;;21.64;50.65;101678.78;7275395;19;152840;-56
2022/10/10 12:21:18;;;;;;;;;;;;;;;21.69;50.60;101684.38;7274527;19;156477;-57
2022/10/10 12:24:05;;;;;;;;;;;;;;;21.73;50.80;101679.81;7272709;19;154760;-57
2022/10/10 12:26:50;;;;;;;;;;;;;;;21.77;50.64;101680.03;7272805;19;152445;-57
2022/10/10 12:29:42;;;;;;;;;;;;;;;21.80;50.57;101685.09;7273163;19;153599;-57
2022/10/10 12:32:14;;;;;;;;;;;;;;;21.85;50.78;101695.44;7267248;19;154795;-57
2022/10/10 12:34:49;;;;;;;;;;;;;;;21.87;50.21;101695.97;7278579;19;153711;-57
2022/10/10 12:37:25;;;;;;;;;;;;;;;21.89;50.24;101685.28;7287121;19;153933;-57
2022/10/10 12:40:08;;;;;;;;;;;;;;;21.89;50.51;101683.28;7265859;19;152691;-57
2022/10/10 12:42:39;;;;;;;;;;;;;;;21.95;50.55;101684.91;7264505;19;153433;-57
2022/10/10 12:45:24;;;;;;;;;;;;;;;21.97;50.20;101684.63;7265369;19;153842;-56